sensor_id;sensor_type;location;lat;lon;timestamp;P1;durP1;ratioP1;P2;durP2;ratioP2
16967;SDS011;64862;54.398;10.126;2023-07-22T00:03:17;13.48;;;7.00;;
16967;SDS011;64862;54.398;10.126;2023-07-22T00:13:19;12.40;;;7.20;;
16967;SDS011;64862;54.398;10.126;2023-07-22T00:23:23;10.05;;;6.68;;
16967;SDS011;64862;54.398;10.126;2023-07-22T00:33:25;12.82;;;7.55;;
16967;SDS011;64862;54.398;10.126;2023-07-22T00:43:29;13.35;;;7.82;;
16967;SDS011;64862;54.398;10.126;2023-07-22T00:53:31;15.98;;;9.27;;
16967;SDS011;64862;54.398;10.126;2023-07-22T01:03:37;12.25;;;8.63;;
16967;SDS011;64862;54.398;10.126;2023-07-22T01:13:39;15.95;;;9.88;;
16967;SDS011;64862;54.398;10.126;2023-07-22T01:23:43;18.23;;;10.07;;
16967;SDS011;64862;54.398;10.126;2023-07-22T01:33:45;15.35;;;9.80;;
16967;SDS011;64862;54.398;10.126;2023-07-22T01:43:49;13.43;;;9.00;;
16967;SDS011;64862;54.398;10.126;2023-07-22T01:53:51;15.48;;;8.45;;
16967;SDS011;64862;54.398;10.126;2023-07-22T02:03:55;20.48;;;7.38;;
16967;SDS011;64862;54.398;10.126;2023-07-22T02:13:57;13.60;;;6.13;;
16967;SDS011;64862;54.398;10.126;2023-07-22T02:24:00;11.65;;;5.68;;
16967;SDS011;64862;54.398;10.126;2023-07-22T02:34:03;10.40;;;5.28;;
16967;SDS011;64862;54.398;10.126;2023-07-22T02:44:07;9.20;;;5.15;;
16967;SDS011;64862;54.398;10.126;2023-07-22T02:54:09;11.55;;;4.78;;
16967;SDS011;64862;54.398;10.126;2023-07-22T03:04:13;14.80;;;4.97;;
16967;SDS011;64862;54.398;10.126;2023-07-22T03:14:15;11.25;;;4.63;;
16967;SDS011;64862;54.398;10.126;2023-07-22T03:24:19;11.05;;;4.40;;
16967;SDS011;64862;54.398;10.126;2023-07-22T03:34:21;14.30;;;4.22;;
16967;SDS011;64862;54.398;10.126;2023-07-22T03:44:25;11.45;;;3.97;;
16967;SDS011;64862;54.398;10.126;2023-07-22T03:54:28;12.07;;;3.78;;
16967;SDS011;64862;54.398;10.126;2023-07-22T04:04:32;7.47;;;3.92;;
16967;SDS011;64862;54.398;10.126;2023-07-22T04:14:34;10.40;;;4.05;;
16967;SDS011;64862;54.398;10.126;2023-07-22T04:24:38;13.25;;;4.60;;
16967;SDS011;64862;54.398;10.126;2023-07-22T04:34:40;10.93;;;4.47;;
16967;SDS011;64862;54.398;10.126;2023-07-22T04:44:44;11.43;;;4.70;;
16967;SDS011;64862;54.398;10.126;2023-07-22T04:54:45;11.38;;;4.93;;
16967;SDS011;64862;54.398;10.126;2023-07-22T05:04:49;11.60;;;4.88;;
16967;SDS011;64862;54.398;10.126;2023-07-22T05:14:51;9.30;;;4.57;;
16967;SDS011;64862;54.398;10.126;2023-07-22T05:24:55;8.93;;;4.25;;
16967;SDS011;64862;54.398;10.126;2023-07-22T05:34:57;9.63;;;3.30;;
16967;SDS011;64862;54.398;10.126;2023-07-22T05:45:01;12.95;;;3.22;;
16967;SDS011;64862;54.398;10.126;2023-07-22T05:55:04;7.85;;;2.65;;
16967;SDS011;64862;54.398;10.126;2023-07-22T06:05:08;7.78;;;2.40;;
16967;SDS011;64862;54.398;10.126;2023-07-22T06:15:11;4.88;;;1.90;;
16967;SDS011;64862;54.398;10.126;2023-07-22T06:25:14;8.32;;;1.85;;
16967;SDS011;64862;54.398;10.126;2023-07-22T06:35:16;4.68;;;1.77;;
16967;SDS011;64862;54.398;10.126;2023-07-22T06:45:20;3.53;;;1.30;;
16967;SDS011;64862;54.398;10.126;2023-07-22T06:55:22;4.40;;;1.40;;
16967;SDS011;64862;54.398;10.126;2023-07-22T07:05:26;2.92;;;1.30;;
16967;SDS011;64862;54.398;10.126;2023-07-22T07:15:28;3.90;;;0.85;;
16967;SDS011;64862;54.398;10.126;2023-07-22T07:25:32;3.38;;;0.68;;
16967;SDS011;64862;54.398;10.126;2023-07-22T07:35:34;2.75;;;0.70;;
16967;SDS011;64862;54.398;10.126;2023-07-22T07:45:38;1.08;;;0.60;;
16967;SDS011;64862;54.398;10.126;2023-07-22T07:55:40;6.45;;;0.80;;
16967;SDS011;64862;54.398;10.126;2023-07-22T08:05:44;4.63;;;0.90;;
16967;SDS011;64862;54.398;10.126;2023-07-22T08:15:46;3.00;;;0.77;;
16967;SDS011;64862;54.398;10.126;2023-07-22T08:25:49;2.63;;;1.10;;
16967;SDS011;64862;54.398;10.126;2023-07-22T08:35:52;5.68;;;0.80;;
16967;SDS011;64862;54.398;10.126;2023-07-22T08:45:55;5.35;;;0.85;;
16967;SDS011;64862;54.398;10.126;2023-07-22T08:56:01;7.60;;;1.17;;
16967;SDS011;64862;54.398;10.126;2023-07-22T09:06:05;4.85;;;1.08;;
16967;SDS011;64862;54.398;10.126;2023-07-22T09:16:08;5.03;;;1.05;;
16967;SDS011;64862;54.398;10.126;2023-07-22T09:26:14;8.32;;;1.10;;
16967;SDS011;64862;54.398;10.126;2023-07-22T09:36:18;3.08;;;0.85;;
16967;SDS011;64862;54.398;10.126;2023-07-22T09:46:22;6.18;;;1.02;;
16967;SDS011;64862;54.398;10.126;2023-07-22T09:56:42;2.25;;;0.90;;
16967;SDS011;64862;54.398;10.126;2023-07-22T10:06:47;4.65;;;1.20;;
16967;SDS011;64862;54.398;10.126;2023-07-22T10:16:49;5.38;;;1.05;;
16967;SDS011;64862;54.398;10.126;2023-07-22T10:26:54;3.92;;;0.90;;
16967;SDS011;64862;54.398;10.126;2023-07-22T10:36:56;3.88;;;0.93;;
16967;SDS011;64862;54.398;10.126;2023-07-22T10:47:00;3.28;;;0.80;;
16967;SDS011;64862;54.398;10.126;2023-07-22T10:57:04;3.15;;;0.90;;
16967;SDS011;64862;54.398;10.126;2023-07-22T11:07:33;4.15;;;0.90;;
16967;SDS011;64862;54.398;10.126;2023-07-22T11:17:43;5.75;;;1.00;;
16967;SDS011;64862;54.398;10.126;2023-07-22T11:27:46;2.70;;;0.80;;
16967;SDS011;64862;54.398;10.126;2023-07-22T11:37:48;3.83;;;1.02;;
16967;SDS011;64862;54.398;10.126;2023-07-22T11:47:52;2.75;;;0.80;;
16967;SDS011;64862;54.398;10.126;2023-07-22T11:57:54;5.15;;;1.17;;
16967;SDS011;64862;54.398;10.126;2023-07-22T12:07:58;3.15;;;1.00;;
16967;SDS011;64862;54.398;10.126;2023-07-22T12:18:00;3.38;;;0.80;;
16967;SDS011;64862;54.398;10.126;2023-07-22T12:28:05;1.17;;;0.70;;
16967;SDS011;64862;54.398;10.126;2023-07-22T12:38:08;2.85;;;0.90;;
16967;SDS011;64862;54.398;10.126;2023-07-22T12:48:11;3.15;;;1.00;;
16967;SDS011;64862;54.398;10.126;2023-07-22T12:58:13;3.92;;;1.05;;
16967;SDS011;64862;54.398;10.126;2023-07-22T13:08:17;2.92;;;0.98;;
16967;SDS011;64862;54.398;10.126;2023-07-22T13:18:19;4.20;;;0.95;;
16967;SDS011;64862;54.398;10.126;2023-07-22T13:28:23;3.67;;;1.20;;
16967;SDS011;64862;54.398;10.126;2023-07-22T13:38:25;5.22;;;1.30;;
16967;SDS011;64862;54.398;10.126;2023-07-22T13:48:29;4.28;;;1.58;;
16967;SDS011;64862;54.398;10.126;2023-07-22T13:58:30;9.75;;;2.70;;
16967;SDS011;64862;54.398;10.126;2023-07-22T14:08:34;5.25;;;2.20;;
16967;SDS011;64862;54.398;10.126;2023-07-22T14:18:36;5.82;;;2.40;;
16967;SDS011;64862;54.398;10.126;2023-07-22T14:28:40;8.05;;;3.03;;
16967;SDS011;64862;54.398;10.126;2023-07-22T14:38:42;8.25;;;4.10;;
16967;SDS011;64862;54.398;10.126;2023-07-22T14:48:46;9.75;;;4.30;;
16967;SDS011;64862;54.398;10.126;2023-07-22T14:58:48;9.02;;;4.53;;
16967;SDS011;64862;54.398;10.126;2023-07-22T15:08:52;7.68;;;4.47;;
16967;SDS011;64862;54.398;10.126;2023-07-22T15:18:55;7.38;;;4.45;;
16967;SDS011;64862;54.398;10.126;2023-07-22T15:28:58;8.75;;;4.80;;
16967;SDS011;64862;54.398;10.126;2023-07-22T15:39:00;8.40;;;5.25;;
16967;SDS011;64862;54.398;10.126;2023-07-22T15:49:04;10.05;;;5.55;;
16967;SDS011;64862;54.398;10.126;2023-07-22T15:59:07;11.73;;;5.63;;
16967;SDS011;64862;54.398;10.126;2023-07-22T16:09:10;10.55;;;6.03;;
16967;SDS011;64862;54.398;10.126;2023-07-22T16:19:14;10.65;;;5.78;;
16967;SDS011;64862;54.398;10.126;2023-07-22T16:29:17;11.45;;;6.25;;
16967;SDS011;64862;54.398;10.126;2023-07-22T16:39:19;14.30;;;7.15;;
16967;SDS011;64862;54.398;10.126;2023-07-22T16:49:24;11.05;;;5.75;;
16967;SDS011;64862;54.398;10.126;2023-07-22T16:59:28;11.35;;;5.72;;
16967;SDS011;64862;54.398;10.126;2023-07-22T17:09:32;8.63;;;5.25;;
16967;SDS011;64862;54.398;10.126;2023-07-22T17:19:34;11.55;;;6.30;;
16967;SDS011;64862;54.398;10.126;2023-07-22T17:29:37;13.02;;;6.38;;
16967;SDS011;64862;54.398;10.126;2023-07-22T17:39:39;13.05;;;6.80;;
16967;SDS011;64862;54.398;10.126;2023-07-22T17:49:43;12.80;;;7.00;;
16967;SDS011;64862;54.398;10.126;2023-07-22T17:59:45;11.23;;;6.35;;
16967;SDS011;64862;54.398;10.126;2023-07-22T18:09:49;15.48;;;7.45;;
16967;SDS011;64862;54.398;10.126;2023-07-22T18:19:51;12.13;;;6.55;;
16967;SDS011;64862;54.398;10.126;2023-07-22T18:29:55;13.68;;;7.35;;
16967;SDS011;64862;54.398;10.126;2023-07-22T18:39:59;12.02;;;7.50;;
16967;SDS011;64862;54.398;10.126;2023-07-22T18:50:02;11.88;;;7.32;;
16967;SDS011;64862;54.398;10.126;2023-07-22T19:00:05;11.77;;;7.65;;
16967;SDS011;64862;54.398;10.126;2023-07-22T19:10:11;13.20;;;7.93;;
16967;SDS011;64862;54.398;10.126;2023-07-22T19:20:13;14.13;;;8.10;;
16967;SDS011;64862;54.398;10.126;2023-07-22T19:30:17;17.27;;;9.45;;
16967;SDS011;64862;54.398;10.126;2023-07-22T19:40:19;13.80;;;9.40;;
16967;SDS011;64862;54.398;10.126;2023-07-22T19:50:23;15.65;;;10.30;;
16967;SDS011;64862;54.398;10.126;2023-07-22T20:00:26;15.77;;;10.13;;
16967;SDS011;64862;54.398;10.126;2023-07-22T20:10:30;14.18;;;8.57;;
16967;SDS011;64862;54.398;10.126;2023-07-22T20:20:32;12.50;;;7.57;;
16967;SDS011;64862;54.398;10.126;2023-07-22T20:30:36;12.43;;;5.78;;
16967;SDS011;64862;54.398;10.126;2023-07-22T20:40:38;7.60;;;5.18;;
16967;SDS011;64862;54.398;10.126;2023-07-22T20:50:41;8.68;;;4.50;;
16967;SDS011;64862;54.398;10.126;2023-07-22T21:00:44;8.23;;;4.50;;
16967;SDS011;64862;54.398;10.126;2023-07-22T21:10:47;9.63;;;3.83;;
16967;SDS011;64862;54.398;10.126;2023-07-22T21:20:50;6.88;;;3.80;;
16967;SDS011;64862;54.398;10.126;2023-07-22T21:30:53;6.90;;;3.53;;
16967;SDS011;64862;54.398;10.126;2023-07-22T21:40:55;6.40;;;3.70;;
16967;SDS011;64862;54.398;10.126;2023-07-22T21:50:59;6.18;;;4.57;;
16967;SDS011;64862;54.398;10.126;2023-07-22T22:01:03;10.50;;;5.03;;
16967;SDS011;64862;54.398;10.126;2023-07-22T22:11:07;10.52;;;6.22;;
16967;SDS011;64862;54.398;10.126;2023-07-22T22:21:09;14.13;;;8.85;;
16967;SDS011;64862;54.398;10.126;2023-07-22T22:31:13;14.88;;;10.48;;
16967;SDS011;64862;54.398;10.126;2023-07-22T22:41:15;16.08;;;11.48;;
16967;SDS011;64862;54.398;10.126;2023-07-22T22:51:18;15.63;;;10.48;;
16967;SDS011;64862;54.398;10.126;2023-07-22T23:01:21;15.57;;;10.43;;
16967;SDS011;64862;54.398;10.126;2023-07-22T23:11:24;13.77;;;9.57;;
16967;SDS011;64862;54.398;10.126;2023-07-22T23:21:26;18.23;;;10.00;;
16967;SDS011;64862;54.398;10.126;2023-07-22T23:31:30;14.20;;;10.38;;
16967;SDS011;64862;54.398;10.126;2023-07-22T23:41:32;17.42;;;10.60;;
16967;SDS011;64862;54.398;10.126;2023-07-22T23:51:35;15.20;;;9.02;;
